createdAt,value
2022-09-16T00:02:23.898Z,98623.03
2022-09-16T00:04:54.981Z,98627.16
2022-09-16T00:07:23.688Z,98572.50
2022-09-16T00:09:52.348Z,98601.91
2022-09-16T00:12:23.310Z,98624.47
2022-09-16T00:14:53.895Z,98554.28
2022-09-16T00:17:23.578Z,98553.06
2022-09-16T00:19:52.334Z,98625.53
2022-09-16T00:22:21.201Z,98609.16
2022-09-16T00:24:51.163Z,98600.47
2022-09-16T00:27:20.111Z,98622.19
2022-09-16T00:29:50.817Z,98577.47
2022-09-16T00:32:19.538Z,98575.19
2022-09-16T00:34:48.588Z,98551.84
2022-09-16T00:37:17.920Z,98627.59
2022-09-16T00:39:49.562Z,98629.22
2022-09-16T00:42:18.743Z,98634.63
2022-09-16T00:44:58.831Z,98638.34
2022-09-16T00:47:33.423Z,98613.94
2022-09-16T00:50:08.576Z,98638.34
2022-09-16T00:52:38.134Z,98628.63
2022-09-16T00:55:10.656Z,98636.50
2022-09-16T00:57:42.196Z,98630.28
2022-09-16T01:00:14.305Z,98638.34
2022-09-16T01:02:44.818Z,98603.16
2022-09-16T01:05:17.352Z,98632.13
2022-09-16T01:07:49.481Z,98615.16
2022-09-16T01:10:21.478Z,98636.69
2022-09-16T01:12:53.250Z,98636.69
2022-09-16T01:15:26.245Z,98632.97
2022-09-16T01:18:05.757Z,98629.63
2022-09-16T01:21:19.457Z,98632.56
2022-09-16T01:24:34.009Z,98632.34
2022-09-16T01:27:45.255Z,98633.38
2022-09-16T01:30:29.237Z,98637.91
2022-09-16T01:33:05.762Z,98561.94
2022-09-16T01:35:48.421Z,98637.13
2022-09-16T01:38:28.450Z,98637.13
2022-09-16T01:41:05.085Z,98639.81
2022-09-16T01:43:44.578Z,98631.72
2022-09-16T01:46:21.730Z,98562.56
2022-09-16T01:48:59.506Z,98615.34
2022-09-16T01:51:32.803Z,98636.28
2022-09-16T01:54:08.806Z,98635.22
2022-09-16T01:56:45.223Z,98570.44
2022-09-16T01:59:21.027Z,98637.72
2022-09-16T02:01:55.425Z,98636.06
2022-09-16T02:04:30.744Z,98638.75
2022-09-16T02:07:02.785Z,98639.59
2022-09-16T02:09:35.243Z,98618.88
2022-09-16T02:12:08.788Z,98640.41
2022-09-16T02:14:42.813Z,98635.03
2022-09-16T02:17:13.609Z,98629.63
2022-09-16T02:19:48.573Z,98636.69
2022-09-16T02:22:20.245Z,98625.09
2022-09-16T02:24:50.229Z,98620.13
2022-09-16T02:27:22.435Z,98608.97
2022-09-16T02:29:54.905Z,98631.31
2022-09-16T02:32:28.052Z,98635.66
2022-09-16T02:35:00.124Z,98565.91
2022-09-16T02:37:32.147Z,98634.00
2022-09-16T02:40:06.398Z,98635.66
2022-09-16T02:42:36.012Z,98630.47
2022-09-16T02:45:05.901Z,98635.03
2022-09-16T02:47:44.781Z,98636.06
2022-09-16T02:50:19.500Z,98629.63
2022-09-16T02:52:58.708Z,98636.06
2022-09-16T02:55:38.240Z,98613.50
2022-09-16T02:58:07.433Z,98630.69
2022-09-16T03:00:43.511Z,98638.75
2022-09-16T03:03:12.484Z,98632.56
2022-09-16T03:06:08.631Z,98651.16
2022-09-16T03:08:39.164Z,98565.91
2022-09-16T03:11:15.249Z,98641.44
2022-09-16T03:13:55.360Z,98638.75
2022-09-16T03:16:30.936Z,98635.25
2022-09-16T03:19:12.417Z,98593.22
2022-09-16T03:21:50.057Z,98651.59
2022-09-16T03:24:29.735Z,98646.63
2022-09-16T03:27:03.769Z,98657.81
2022-09-16T03:29:38.566Z,98655.31
2022-09-16T03:32:18.515Z,98656.97
2022-09-16T03:34:50.982Z,98543.06
2022-09-16T03:37:23.873Z,98634.38
2022-09-16T03:39:55.576Z,98659.66
2022-09-16T03:42:24.863Z,98537.88
2022-09-16T03:44:53.893Z,98644.13
2022-09-16T03:47:22.837Z,98665.03
2022-09-16T03:49:51.931Z,98664.03
2022-09-16T03:52:22.632Z,98657.81
2022-09-16T03:54:51.318Z,98655.94
2022-09-16T03:57:20.128Z,98641.63
2022-09-16T03:59:49.231Z,98652.22
2022-09-16T04:02:18.311Z,98660.28
2022-09-16T04:04:47.356Z,98654.91
2022-09-16T04:07:16.931Z,98656.56
2022-09-16T04:09:47.409Z,98659.44
2022-09-16T04:12:16.574Z,98665.66
2022-09-16T04:14:45.234Z,98644.75
2022-09-16T04:17:14.839Z,98630.06
2022-09-16T04:19:43.831Z,98666.50
2022-09-16T04:22:12.881Z,98665.66
2022-09-16T04:24:42.123Z,98577.88
2022-09-16T04:27:12.928Z,98672.09
2022-09-16T04:29:42.101Z,98671.06
2022-09-16T04:32:10.803Z,98674.78
2022-09-16T04:34:39.877Z,98676.44
2022-09-16T04:37:08.845Z,98681.81
2022-09-16T04:39:37.881Z,98669.41
2022-09-16T04:42:07.566Z,98663.56
2022-09-16T04:44:38.503Z,98528.97
2022-09-16T04:47:07.214Z,98679.13
2022-09-16T04:49:36.270Z,98676.44
2022-09-16T04:52:05.288Z,98680.16
2022-09-16T04:54:34.427Z,98643.69
2022-09-16T04:57:03.605Z,98668.34
2022-09-16T04:59:32.845Z,98684.50
2022-09-16T05:02:03.642Z,98687.19
2022-09-16T05:04:32.853Z,98692.59
2022-09-16T05:07:01.745Z,98689.91
2022-09-16T05:09:30.827Z,98687.19
2022-09-16T05:11:59.932Z,98687.19
2022-09-16T05:14:29.543Z,98621.72
2022-09-16T05:16:58.688Z,98697.97
2022-09-16T05:19:30.053Z,98697.13
2022-09-16T05:21:58.867Z,98697.97
2022-09-16T05:24:27.861Z,98703.34
2022-09-16T05:26:56.857Z,98682.81
2022-09-16T05:29:26.313Z,98700.03
2022-09-16T05:31:56.065Z,98680.13
2022-09-16T05:34:28.924Z,98701.69
2022-09-16T05:37:00.687Z,98705.41
2022-09-16T05:39:29.962Z,98712.47
2022-09-16T05:42:01.128Z,98687.59
2022-09-16T05:44:31.495Z,98710.78
2022-09-16T05:47:00.737Z,98714.13
2022-09-16T05:49:29.521Z,98722.41
2022-09-16T05:52:00.617Z,98704.97
2022-09-16T05:54:29.676Z,98724.88
2022-09-16T05:57:01.269Z,98720.34
2022-09-16T05:59:33.407Z,98723.84
2022-09-16T06:02:02.472Z,98703.75
2022-09-16T06:04:31.444Z,98726.53
2022-09-16T06:07:02.639Z,98722.81
2022-09-16T06:09:31.740Z,98714.28
2022-09-16T06:12:02.257Z,98725.72
2022-09-16T06:14:31.632Z,98672.44
2022-09-16T06:17:00.859Z,98725.72
2022-09-16T06:19:30.316Z,98736.47
2022-09-16T06:21:58.859Z,98736.47
2022-09-16T06:24:30.102Z,98677.19
2022-09-16T06:26:59.385Z,98734.81
2022-09-16T06:29:28.693Z,98737.50
2022-09-16T06:31:57.824Z,98741.03
2022-09-16T06:34:27.386Z,98737.50
2022-09-16T06:36:56.484Z,98695.00
2022-09-16T06:39:25.601Z,98739.38
2022-09-16T06:41:56.192Z,98737.69
2022-09-16T06:44:25.190Z,98740.38
2022-09-16T06:46:56.771Z,98689.00
2022-09-16T06:49:25.517Z,98740.19
2022-09-16T06:51:58.038Z,98748.47
2022-09-16T06:54:27.394Z,98750.16
2022-09-16T06:56:59.807Z,98747.44
2022-09-16T06:59:29.187Z,98755.53
2022-09-16T07:01:59.894Z,98755.53
2022-09-16T07:04:29.400Z,98739.31
2022-09-16T07:07:15.282Z,98746.38
2022-09-16T07:09:43.956Z,98730.63
2022-09-16T07:12:19.384Z,98764.63
2022-09-16T07:14:49.042Z,98761.91
2022-09-16T07:17:18.391Z,98770.00
2022-09-16T07:19:47.998Z,98769.19
2022-09-16T07:22:16.862Z,98770.84
2022-09-16T07:24:46.490Z,98776.41
2022-09-16T07:27:17.741Z,98722.72
2022-09-16T07:29:46.909Z,98708.63
2022-09-16T07:32:16.155Z,98702.81
2022-09-16T07:34:46.222Z,98750.28
2022-09-16T07:37:15.484Z,98753.81
2022-09-16T07:39:44.902Z,98719.38
2022-09-16T07:42:14.020Z,98784.50
2022-09-16T07:44:45.032Z,98791.53
2022-09-16T07:47:13.631Z,98797.75
2022-09-16T07:49:42.939Z,98758.38
2022-09-16T07:52:11.743Z,98747.78
2022-09-16T07:54:40.830Z,98727.66
2022-09-16T07:57:09.402Z,98783.44
2022-09-16T07:59:38.508Z,98794.22
2022-09-16T08:02:09.273Z,98775.75
2022-09-16T08:04:42.627Z,98767.25
2022-09-16T08:07:11.778Z,98656.28
2022-09-16T08:09:48.567Z,98758.72
2022-09-16T08:12:22.818Z,98792.53
2022-09-16T08:14:51.929Z,98740.47
2022-09-16T08:17:30.706Z,98787.75
2022-09-16T08:20:07.649Z,98818.44
2022-09-16T08:22:36.698Z,98791.50
2022-09-16T08:25:09.240Z,98816.78
2022-09-16T08:27:38.910Z,98806.88
2022-09-16T08:30:11.311Z,98816.78
2022-09-16T08:32:42.018Z,98820.13
2022-09-16T08:35:11.212Z,98660.81
2022-09-16T08:37:40.311Z,98823.00
2022-09-16T08:40:12.791Z,98830.88
2022-09-16T08:42:58.307Z,98825.50
2022-09-16T08:45:32.916Z,98830.88
2022-09-16T08:48:28.659Z,98691.06
2022-09-16T08:51:00.829Z,98837.47
2022-09-16T08:53:37.767Z,98827.56
2022-09-16T08:56:09.670Z,98817.34
2022-09-16T08:58:43.847Z,98839.97
2022-09-16T09:01:21.073Z,98837.91
2022-09-16T09:03:51.917Z,98833.38
2022-09-16T09:06:38.512Z,98841.44
2022-09-16T09:09:44.631Z,98811.38
2022-09-16T09:12:26.627Z,98853.63
2022-09-16T09:15:07.420Z,98849.09
2022-09-16T09:17:50.782Z,98850.72
2022-09-16T09:20:32.902Z,98769.81
2022-09-16T09:23:15.948Z,98858.19
2022-09-16T09:25:51.762Z,98844.53
2022-09-16T09:28:42.214Z,98849.09
2022-09-16T09:31:21.633Z,98850.72
2022-09-16T09:33:58.859Z,98850.72
2022-09-16T09:36:38.966Z,98848.03
2022-09-16T09:39:33.009Z,98858.19
2022-09-16T09:42:07.766Z,98851.78
2022-09-16T09:44:49.170Z,98850.13
2022-09-16T09:47:23.895Z,98851.78
2022-09-16T09:49:55.947Z,98768.91
2022-09-16T09:52:34.364Z,98856.50
2022-09-16T09:55:16.347Z,98801.31
2022-09-16T09:58:05.501Z,98861.91
2022-09-16T10:00:34.672Z,98838.66
2022-09-16T10:03:07.216Z,98858.19
2022-09-16T10:05:36.331Z,98861.09
2022-09-16T10:08:16.697Z,98867.28
2022-09-16T10:10:52.989Z,98790.09
2022-09-16T10:13:23.842Z,98860.88
2022-09-16T10:15:56.124Z,98858.19
2022-09-16T10:18:30.254Z,98870.63
2022-09-16T10:21:04.770Z,98807.94
2022-09-16T10:23:35.883Z,98870.63
2022-09-16T10:26:16.919Z,98869.78
2022-09-16T10:29:00.009Z,98789.22
2022-09-16T10:31:34.385Z,98863.56
2022-09-16T10:34:06.106Z,98870.63
2022-09-16T10:36:36.861Z,98883.03
2022-09-16T10:39:07.814Z,98872.25
2022-09-16T10:41:46.415Z,98829.31
2022-09-16T10:44:18.969Z,98873.09
2022-09-16T10:46:59.975Z,98884.06
2022-09-16T10:49:40.637Z,98866.81
2022-09-16T10:52:19.642Z,98885.72
2022-09-16T10:54:51.223Z,98883.03
2022-09-16T10:57:32.239Z,98885.72
2022-09-16T11:00:04.975Z,98892.97
2022-09-16T11:03:15.239Z,98885.72
2022-09-16T11:05:54.688Z,98872.22
2022-09-16T11:08:44.309Z,98886.75
2022-09-16T11:11:25.151Z,98841.91
2022-09-16T11:14:03.042Z,98870.16
2022-09-16T11:16:54.967Z,98892.13
2022-09-16T11:19:35.902Z,98895.88
2022-09-16T11:22:14.225Z,98900.22
2022-09-16T11:25:02.285Z,98795.81
2022-09-16T11:27:45.717Z,98896.47
2022-09-16T11:30:16.904Z,98899.19
2022-09-16T11:33:08.281Z,98893.78
2022-09-16T11:36:04.173Z,98898.38
2022-09-16T11:38:43.993Z,98899.19
2022-09-16T11:41:27.050Z,98776.28
2022-09-16T11:44:12.338Z,98903.75
2022-09-16T11:47:00.278Z,98913.66
2022-09-16T11:49:48.960Z,98914.50
2022-09-16T11:52:35.001Z,98908.28
2022-09-16T11:55:30.095Z,98920.69
2022-09-16T11:58:02.519Z,98835.63
2022-09-16T12:00:35.653Z,98915.31
2022-09-16T12:03:13.479Z,98909.94
2022-09-16T12:05:50.463Z,98908.28
2022-09-16T12:08:24.939Z,98895.78
2022-09-16T12:10:59.714Z,98917.41
2022-09-16T12:13:32.025Z,98836.44
2022-09-16T12:16:07.250Z,98900.78
2022-09-16T12:18:43.467Z,98897.88
2022-09-16T12:21:19.991Z,98918.66
2022-09-16T12:23:55.024Z,98922.38
2022-09-16T12:26:28.588Z,98920.69
2022-09-16T12:29:04.150Z,98934.81
2022-09-16T12:31:39.879Z,98920.31
2022-09-16T12:34:14.401Z,98775.81
2022-09-16T12:36:49.390Z,98763.75
2022-09-16T12:39:18.525Z,98897.88
2022-09-16T12:42:03.766Z,98917.00
2022-09-16T12:45:10.185Z,98924.25
2022-09-16T12:48:08.093Z,98924.25
2022-09-16T12:50:55.301Z,98930.66
2022-09-16T12:54:03.428Z,98928.16
2022-09-16T12:56:46.464Z,98935.19
2022-09-16T12:59:51.576Z,98865.22
2022-09-16T13:02:23.272Z,98940.59
2022-09-16T13:04:57.640Z,98945.97
2022-09-16T13:07:28.842Z,98929.81
2022-09-16T13:10:06.443Z,98924.44
2022-09-16T13:12:41.333Z,98857.13
2022-09-16T13:15:26.590Z,98935.41
2022-09-16T13:17:56.131Z,98936.84
2022-09-16T13:20:32.957Z,98901.97
2022-09-16T13:23:09.317Z,98946.16
2022-09-16T13:25:50.932Z,98872.03
2022-09-16T13:28:28.908Z,98872.88
2022-09-16T13:30:57.550Z,98936.25
2022-09-16T13:33:30.002Z,98945.97
2022-09-16T13:36:33.073Z,98910.28
2022-09-16T13:39:03.818Z,98949.69
2022-09-16T13:41:36.340Z,98944.31
2022-09-16T13:44:27.915Z,98944.31
2022-09-16T13:46:56.535Z,98953.41
2022-09-16T13:49:28.094Z,98924.78
2022-09-16T13:51:58.676Z,98951.34
2022-09-16T13:54:30.750Z,98898.97
2022-09-16T13:57:20.825Z,98881.94
2022-09-16T14:00:09.843Z,98926.22
2022-09-16T14:03:09.621Z,98923.47
2022-09-16T14:05:52.427Z,98955.88
2022-09-16T14:08:32.572Z,98955.09
2022-09-16T14:11:16.783Z,98945.13
2022-09-16T14:13:48.845Z,98955.88
2022-09-16T14:16:21.460Z,98930.16
2022-09-16T14:19:00.797Z,98951.34
2022-09-16T14:21:29.848Z,98883.63
2022-09-16T14:24:09.641Z,98962.97
2022-09-16T14:26:38.059Z,98930.75
2022-09-16T14:29:07.387Z,98962.13
2022-09-16T14:31:39.933Z,98940.53
2022-09-16T14:34:11.503Z,98960.06
2022-09-16T14:36:43.569Z,98915.19
2022-09-16T14:39:23.248Z,98926.19
2022-09-16T14:42:10.179Z,98964.59
2022-09-16T14:44:46.255Z,98925.56
2022-09-16T14:47:52.308Z,98970.84
2022-09-16T14:50:26.129Z,98970.84
2022-09-16T14:53:06.820Z,98964.16
2022-09-16T14:55:42.117Z,98970.84
2022-09-16T14:58:19.010Z,98949.19
2022-09-16T15:04:00.364Z,98974.53
2022-09-16T15:06:39.728Z,98903.47
2022-09-16T15:09:21.997Z,98975.38
2022-09-16T15:15:01.958Z,98972.88
2022-09-16T15:17:31.783Z,98979.09
2022-09-16T15:20:05.445Z,98967.44
2022-09-16T15:22:37.349Z,98981.59
2022-09-16T15:25:07.693Z,98866.88
2022-09-16T15:27:44.644Z,98978.25
2022-09-16T15:30:25.625Z,98972.47
2022-09-16T15:33:09.660Z,98991.31
2022-09-16T15:35:47.561Z,98976.22
2022-09-16T15:38:28.382Z,98893.50
2022-09-16T15:41:09.384Z,98981.59
2022-09-16T15:43:45.568Z,98983.25
2022-09-16T15:46:23.845Z,98910.53
2022-09-16T15:48:59.614Z,98983.25
2022-09-16T15:51:36.817Z,98915.06
2022-09-16T15:54:27.306Z,98994.00
2022-09-16T15:57:05.076Z,98997.75
2022-09-16T15:59:44.994Z,98997.75
2022-09-16T16:02:41.661Z,98865.94
2022-09-16T16:05:19.376Z,98978.59
2022-09-16T16:07:57.772Z,99005.56
2022-09-16T16:10:32.350Z,99005.56
2022-09-16T16:13:07.945Z,98995.44
2022-09-16T16:18:47.317Z,98984.38
2022-09-16T16:24:05.279Z,98946.50
2022-09-16T16:26:56.866Z,98885.84
2022-09-16T16:29:37.377Z,98998.53
2022-09-16T16:32:40.944Z,99008.50
2022-09-16T16:38:01.077Z,99006.81
2022-09-16T16:43:20.879Z,99000.56
2022-09-16T16:45:56.019Z,99003.13
2022-09-16T16:48:25.011Z,99004.97
2022-09-16T16:51:00.078Z,99004.13
2022-09-16T16:53:30.148Z,98999.53
2022-09-16T16:56:05.106Z,99018.44
2022-09-16T16:58:36.349Z,99015.94
2022-09-16T17:01:13.235Z,98939.47
2022-09-16T17:03:42.697Z,99012.22
2022-09-16T17:06:13.044Z,99020.09
2022-09-16T17:08:42.117Z,99026.31
2022-09-16T17:11:12.216Z,99025.47
2022-09-16T17:13:43.061Z,98951.28
2022-09-16T17:16:13.894Z,99026.31
2022-09-16T17:18:44.241Z,98995.97
2022-09-16T17:21:16.496Z,98956.88
2022-09-16T17:23:45.427Z,98945.28
2022-09-16T17:26:15.139Z,98936.91
2022-09-16T17:28:47.185Z,99029.00
2022-09-16T17:31:17.840Z,98963.94
2022-09-16T17:33:46.707Z,98966.63
2022-09-16T17:36:19.993Z,99031.69
2022-09-16T17:38:49.587Z,99019.81
2022-09-16T17:41:19.124Z,99016.25
2022-09-16T17:43:49.817Z,99036.25
2022-09-16T17:46:20.706Z,99030.38
2022-09-16T17:48:49.276Z,98992.97
2022-09-16T17:51:19.925Z,99045.16
2022-09-16T17:53:48.649Z,99050.53
2022-09-16T17:56:19.600Z,99061.31
2022-09-16T17:59:07.152Z,99061.31
2022-09-16T18:01:37.269Z,98964.16
2022-09-16T18:04:14.430Z,99066.69
2022-09-16T18:06:51.833Z,99065.03
2022-09-16T18:09:28.947Z,99049.41
2022-09-16T18:12:03.998Z,99078.50
2022-09-16T18:14:35.094Z,99069.78
2022-09-16T18:17:06.924Z,99074.31
2022-09-16T18:19:37.779Z,99067.91
2022-09-16T18:22:15.038Z,99069.38
2022-09-16T18:24:52.130Z,98996.19
2022-09-16T18:30:21.434Z,99074.75
2022-09-16T18:32:53.191Z,99007.38
2022-09-16T18:38:21.490Z,99087.56
2022-09-16T18:41:08.433Z,99076.59
2022-09-16T18:43:40.049Z,99009.19
2022-09-16T18:46:26.865Z,99057.22
2022-09-16T18:49:03.997Z,99089.66
2022-09-16T18:51:43.497Z,99018.97
2022-09-16T18:54:46.868Z,99086.56
2022-09-16T18:57:18.712Z,99091.94
2022-09-16T19:02:43.712Z,99049.06
2022-09-16T19:05:20.017Z,98831.41
2022-09-16T19:07:51.986Z,99091.31
2022-09-16T19:10:27.102Z,99102.72
2022-09-16T19:12:58.913Z,99100.03
2022-09-16T19:15:29.471Z,99023.47
2022-09-16T19:18:02.079Z,99101.69
2022-09-16T19:20:33.124Z,99096.28
2022-09-16T19:23:02.926Z,99093.59
2022-09-16T19:25:35.978Z,99107.06
2022-09-16T19:28:06.617Z,99104.38
2022-09-16T19:30:36.779Z,99111.41
2022-09-16T19:33:09.630Z,99041.34
2022-09-16T19:35:48.064Z,99105.00
2022-09-16T19:38:17.664Z,99106.22
2022-09-16T19:43:40.848Z,99107.94
2022-09-16T19:46:16.471Z,99068.16
2022-09-16T19:48:52.433Z,99050.31
2022-09-16T19:51:26.167Z,99116.66
2022-09-16T19:53:57.299Z,99114.97
2022-09-16T19:56:48.143Z,99083.34
2022-09-16T19:59:29.848Z,99120.34
2022-09-16T20:02:15.765Z,99121.19
2022-09-16T20:04:46.792Z,99103.34
2022-09-16T20:07:21.639Z,99124.94
2022-09-16T20:09:52.702Z,99112.44
2022-09-16T20:12:25.732Z,99057.91
2022-09-16T20:15:04.908Z,99138.19
2022-09-16T20:17:49.459Z,99125.75
2022-09-16T20:20:24.168Z,99102.47
2022-09-16T20:22:56.026Z,99118.69
2022-09-16T20:25:28.105Z,99124.09
2022-09-16T20:28:00.484Z,99043.81
2022-09-16T20:30:34.149Z,99098.09
2022-09-16T20:33:06.729Z,99125.75
2022-09-16T20:35:39.336Z,99065.31
2022-09-16T20:38:12.199Z,99045.78
2022-09-16T20:40:49.077Z,99003.81
2022-09-16T20:43:59.920Z,99129.47
2022-09-16T20:46:51.953Z,99136.94
2022-09-16T20:49:25.055Z,99131.53
2022-09-16T20:52:00.727Z,99130.69
2022-09-16T20:54:31.514Z,99134.22
2022-09-16T20:57:16.147Z,99126.88
2022-09-16T20:59:47.889Z,99069.78
2022-09-16T21:02:30.240Z,99122.72
2022-09-16T21:05:05.201Z,98971.63
2022-09-16T21:07:36.022Z,99151.00
2022-09-16T21:10:07.999Z,99064.41
2022-09-16T21:12:37.603Z,99131.41
2022-09-16T21:15:14.121Z,99066.50
2022-09-16T21:17:52.190Z,99156.38
2022-09-16T21:20:31.472Z,99156.38
2022-09-16T21:23:03.220Z,99160.13
2022-09-16T21:25:43.498Z,99101.34
2022-09-16T21:28:17.515Z,99176.28
2022-09-16T21:30:49.582Z,99057.38
2022-09-16T21:36:14.044Z,99190.34
2022-09-16T21:39:00.459Z,99168.69
2022-09-16T21:41:34.756Z,99151.16
2022-09-16T21:44:18.692Z,99176.28
2022-09-16T21:49:36.703Z,99178.97
2022-09-16T21:54:50.877Z,99184.34
2022-09-16T21:57:22.856Z,99165.00
2022-09-16T22:02:45.604Z,99193.25
2022-09-16T22:05:13.714Z,99187.03
2022-09-16T22:07:41.790Z,99196.75
2022-09-16T22:10:10.474Z,99192.41
2022-09-16T22:12:38.574Z,99201.09
2022-09-16T22:15:07.756Z,99200.31
2022-09-16T22:17:35.871Z,99204.84
2022-09-16T22:20:08.091Z,99206.50
2022-09-16T22:22:36.689Z,99202.16
2022-09-16T22:25:05.282Z,99197.81
2022-09-16T22:27:33.462Z,99198.19
2022-09-16T22:30:01.839Z,99206.06
2022-09-16T22:32:29.952Z,99203.19
2022-09-16T22:34:58.078Z,99210.22
2022-09-16T22:37:27.591Z,99199.47
2022-09-16T22:39:55.796Z,99201.97
2022-09-16T22:42:23.980Z,99187.03
2022-09-16T22:44:52.205Z,99198.41
2022-09-16T22:47:20.265Z,99194.91
2022-09-16T22:49:48.340Z,99199.47
2022-09-16T22:52:16.522Z,99200.22
2022-09-16T22:54:46.058Z,99202.16
2022-09-16T22:57:14.163Z,99196.16
2022-09-16T22:59:42.306Z,99187.03
2022-09-16T23:02:10.692Z,99199.47
2022-09-16T23:04:38.811Z,99199.47
2022-09-16T23:07:10.322Z,99189.53
2022-09-16T23:09:38.467Z,99201.34
2022-09-16T23:12:08.398Z,99196.75
2022-09-16T23:14:37.112Z,99204.03
2022-09-16T23:17:05.517Z,99194.47
2022-09-16T23:19:33.911Z,99196.16
2022-09-16T23:22:02.003Z,99205.88
2022-09-16T23:24:30.085Z,99196.16
2022-09-16T23:26:58.171Z,99200.50
2022-09-16T23:29:27.702Z,99197.81
2022-09-16T23:31:57.341Z,99206.91
2022-09-16T23:34:25.553Z,99201.53
2022-09-16T23:36:53.700Z,99205.22
2022-09-16T23:39:21.850Z,99203.19
2022-09-16T23:41:51.402Z,99196.97
2022-09-16T23:44:19.799Z,99197.81
2022-09-16T23:46:49.375Z,99203.19
2022-09-16T23:49:20.363Z,99204.22
2022-09-16T23:51:49.303Z,99210.59
2022-09-16T23:54:17.649Z,99206.91
2022-09-16T23:56:47.107Z,99213.31
2022-09-16T23:59:15.189Z,99208.56
